sensor_id;sensor_type;location;lat;lon;timestamp;temperature;humidity
4820;DHT22;2424;49.696;6.630;2024-02-26T00:03:14;7.40;99.90
4820;DHT22;2424;49.696;6.630;2024-02-26T00:08:38;7.30;99.90
4820;DHT22;2424;49.696;6.630;2024-02-26T00:14:00;7.30;99.90
4820;DHT22;2424;49.696;6.630;2024-02-26T00:19:21;7.20;99.90
4820;DHT22;2424;49.696;6.630;2024-02-26T00:24:45;7.10;99.90
4820;DHT22;2424;49.696;6.630;2024-02-26T00:30:08;7.10;99.90
4820;DHT22;2424;49.696;6.630;2024-02-26T00:35:30;7.00;99.90
4820;DHT22;2424;49.696;6.630;2024-02-26T00:40:53;7.00;99.90
4820;DHT22;2424;49.696;6.630;2024-02-26T00:46:15;7.00;99.90
4820;DHT22;2424;49.696;6.630;2024-02-26T00:51:37;7.00;99.90
4820;DHT22;2424;49.696;6.630;2024-02-26T00:57:00;7.00;99.90
4820;DHT22;2424;49.696;6.630;2024-02-26T01:02:22;6.90;99.90
4820;DHT22;2424;49.696;6.630;2024-02-26T01:07:44;6.90;99.90
4820;DHT22;2424;49.696;6.630;2024-02-26T01:13:07;6.90;99.90
4820;DHT22;2424;49.696;6.630;2024-02-26T01:18:29;6.80;99.90
4820;DHT22;2424;49.696;6.630;2024-02-26T01:23:51;6.80;99.90
4820;DHT22;2424;49.696;6.630;2024-02-26T01:29:14;6.70;99.90
4820;DHT22;2424;49.696;6.630;2024-02-26T01:34:36;6.70;99.90
4820;DHT22;2424;49.696;6.630;2024-02-26T01:39:58;6.70;99.90
4820;DHT22;2424;49.696;6.630;2024-02-26T01:45:21;6.60;99.90
4820;DHT22;2424;49.696;6.630;2024-02-26T01:50:45;6.60;99.90
4820;DHT22;2424;49.696;6.630;2024-02-26T01:56:07;6.50;99.90
4820;DHT22;2424;49.696;6.630;2024-02-26T02:01:31;6.50;99.90
4820;DHT22;2424;49.696;6.630;2024-02-26T02:06:55;6.50;99.90
4820;DHT22;2424;49.696;6.630;2024-02-26T02:12:19;6.50;99.90
4820;DHT22;2424;49.696;6.630;2024-02-26T02:17:42;6.40;99.90
4820;DHT22;2424;49.696;6.630;2024-02-26T02:23:06;6.40;99.90
4820;DHT22;2424;49.696;6.630;2024-02-26T02:28:28;6.40;99.90
4820;DHT22;2424;49.696;6.630;2024-02-26T02:33:50;6.30;99.90
4820;DHT22;2424;49.696;6.630;2024-02-26T02:39:13;6.30;99.90
4820;DHT22;2424;49.696;6.630;2024-02-26T02:44:37;6.30;99.90
4820;DHT22;2424;49.696;6.630;2024-02-26T02:49:59;6.20;99.90
4820;DHT22;2424;49.696;6.630;2024-02-26T02:55:22;6.30;99.90
4820;DHT22;2424;49.696;6.630;2024-02-26T03:00:44;6.30;99.90
4820;DHT22;2424;49.696;6.630;2024-02-26T03:06:06;6.30;99.90
4820;DHT22;2424;49.696;6.630;2024-02-26T03:11:29;6.30;99.90
4820;DHT22;2424;49.696;6.630;2024-02-26T03:16:53;6.20;99.90
4820;DHT22;2424;49.696;6.630;2024-02-26T03:22:15;6.30;99.90
4820;DHT22;2424;49.696;6.630;2024-02-26T03:27:38;6.30;99.90
4820;DHT22;2424;49.696;6.630;2024-02-26T03:33:00;6.30;99.90
4820;DHT22;2424;49.696;6.630;2024-02-26T03:38:23;6.30;99.90
4820;DHT22;2424;49.696;6.630;2024-02-26T03:43:46;6.30;99.90
4820;DHT22;2424;49.696;6.630;2024-02-26T03:49:08;6.30;99.90
4820;DHT22;2424;49.696;6.630;2024-02-26T03:54:30;6.40;99.90
4820;DHT22;2424;49.696;6.630;2024-02-26T03:59:53;6.40;99.90
4820;DHT22;2424;49.696;6.630;2024-02-26T04:05:15;6.40;99.90
4820;DHT22;2424;49.696;6.630;2024-02-26T04:10:37;6.40;99.90
4820;DHT22;2424;49.696;6.630;2024-02-26T04:16:01;6.50;99.90
4820;DHT22;2424;49.696;6.630;2024-02-26T04:21:23;6.50;99.90
4820;DHT22;2424;49.696;6.630;2024-02-26T04:26:45;6.50;99.90
4820;DHT22;2424;49.696;6.630;2024-02-26T04:32:08;6.50;99.90
4820;DHT22;2424;49.696;6.630;2024-02-26T04:37:30;6.50;99.90
4820;DHT22;2424;49.696;6.630;2024-02-26T04:42:52;6.50;99.90
4820;DHT22;2424;49.696;6.630;2024-02-26T04:48:15;6.50;99.90
4820;DHT22;2424;49.696;6.630;2024-02-26T04:53:37;6.60;99.90
4820;DHT22;2424;49.696;6.630;2024-02-26T04:58:59;6.60;99.90
4820;DHT22;2424;49.696;6.630;2024-02-26T05:04:22;6.50;99.90
4820;DHT22;2424;49.696;6.630;2024-02-26T05:09:44;6.60;99.90
4820;DHT22;2424;49.696;6.630;2024-02-26T05:15:07;6.60;99.90
4820;DHT22;2424;49.696;6.630;2024-02-26T05:20:31;6.50;99.90
4820;DHT22;2424;49.696;6.630;2024-02-26T05:25:55;6.50;99.90
4820;DHT22;2424;49.696;6.630;2024-02-26T05:31:17;6.50;99.90
4820;DHT22;2424;49.696;6.630;2024-02-26T05:36:41;6.50;99.90
4820;DHT22;2424;49.696;6.630;2024-02-26T05:42:03;6.60;99.90
4820;DHT22;2424;49.696;6.630;2024-02-26T05:47:25;6.50;99.90
4820;DHT22;2424;49.696;6.630;2024-02-26T05:52:48;6.60;99.90
4820;DHT22;2424;49.696;6.630;2024-02-26T05:58:10;6.60;99.90
4820;DHT22;2424;49.696;6.630;2024-02-26T06:03:32;6.60;99.90
4820;DHT22;2424;49.696;6.630;2024-02-26T06:08:56;6.60;99.90
4820;DHT22;2424;49.696;6.630;2024-02-26T06:14:18;6.60;99.90
4820;DHT22;2424;49.696;6.630;2024-02-26T06:19:40;6.60;99.90
4820;DHT22;2424;49.696;6.630;2024-02-26T06:25:04;6.50;99.90
4820;DHT22;2424;49.696;6.630;2024-02-26T06:30:26;6.50;99.90
4820;DHT22;2424;49.696;6.630;2024-02-26T06:35:48;6.50;99.90
4820;DHT22;2424;49.696;6.630;2024-02-26T06:41:11;6.50;99.90
4820;DHT22;2424;49.696;6.630;2024-02-26T06:46:33;6.50;99.90
4820;DHT22;2424;49.696;6.630;2024-02-26T06:51:55;6.50;99.90
4820;DHT22;2424;49.696;6.630;2024-02-26T06:57:18;6.60;99.90
4820;DHT22;2424;49.696;6.630;2024-02-26T07:02:40;6.60;99.90
4820;DHT22;2424;49.696;6.630;2024-02-26T07:08:03;6.60;99.90
4820;DHT22;2424;49.696;6.630;2024-02-26T07:13:26;6.60;99.90
4820;DHT22;2424;49.696;6.630;2024-02-26T07:18:48;6.60;99.90
4820;DHT22;2424;49.696;6.630;2024-02-26T07:24:10;6.60;99.90
4820;DHT22;2424;49.696;6.630;2024-02-26T07:29:33;6.60;99.90
4820;DHT22;2424;49.696;6.630;2024-02-26T07:34:55;6.60;99.90
4820;DHT22;2424;49.696;6.630;2024-02-26T07:40:17;6.60;99.90
4820;DHT22;2424;49.696;6.630;2024-02-26T07:45:41;6.60;99.90
4820;DHT22;2424;49.696;6.630;2024-02-26T07:51:04;6.60;99.90
4820;DHT22;2424;49.696;6.630;2024-02-26T07:56:26;6.70;99.90
4820;DHT22;2424;49.696;6.630;2024-02-26T08:01:51;6.70;99.90
4820;DHT22;2424;49.696;6.630;2024-02-26T08:07:13;6.70;99.90
4820;DHT22;2424;49.696;6.630;2024-02-26T08:12:35;6.70;99.90
4820;DHT22;2424;49.696;6.630;2024-02-26T08:17:58;6.80;99.90
4820;DHT22;2424;49.696;6.630;2024-02-26T08:23:22;6.80;99.90
4820;DHT22;2424;49.696;6.630;2024-02-26T08:28:45;6.80;99.90
4820;DHT22;2424;49.696;6.630;2024-02-26T08:34:09;6.90;99.90
4820;DHT22;2424;49.696;6.630;2024-02-26T08:39:31;6.90;99.90
4820;DHT22;2424;49.696;6.630;2024-02-26T08:44:53;7.00;99.90
4820;DHT22;2424;49.696;6.630;2024-02-26T08:50:17;7.10;99.90
4820;DHT22;2424;49.696;6.630;2024-02-26T08:55:39;7.10;99.90
4820;DHT22;2424;49.696;6.630;2024-02-26T09:01:00;7.20;99.90
4820;DHT22;2424;49.696;6.630;2024-02-26T09:06:24;7.30;99.90
4820;DHT22;2424;49.696;6.630;2024-02-26T09:11:46;7.30;99.90
4820;DHT22;2424;49.696;6.630;2024-02-26T09:17:08;7.40;99.90
4820;DHT22;2424;49.696;6.630;2024-02-26T09:22:31;7.50;99.90
4820;DHT22;2424;49.696;6.630;2024-02-26T09:27:53;7.60;99.90
4820;DHT22;2424;49.696;6.630;2024-02-26T09:33:15;7.60;99.90
4820;DHT22;2424;49.696;6.630;2024-02-26T09:38:38;7.60;99.90
4820;DHT22;2424;49.696;6.630;2024-02-26T09:44:02;7.60;99.90
4820;DHT22;2424;49.696;6.630;2024-02-26T09:49:26;7.60;99.90
4820;DHT22;2424;49.696;6.630;2024-02-26T09:54:49;7.70;99.90
4820;DHT22;2424;49.696;6.630;2024-02-26T10:00:15;7.70;99.90
4820;DHT22;2424;49.696;6.630;2024-02-26T10:05:39;7.80;99.90
4820;DHT22;2424;49.696;6.630;2024-02-26T10:11:03;7.80;99.90
4820;DHT22;2424;49.696;6.630;2024-02-26T10:16:26;7.90;99.90
4820;DHT22;2424;49.696;6.630;2024-02-26T10:21:49;8.10;99.90
4820;DHT22;2424;49.696;6.630;2024-02-26T10:27:12;8.20;99.90
4820;DHT22;2424;49.696;6.630;2024-02-26T10:32:34;8.30;99.90
4820;DHT22;2424;49.696;6.630;2024-02-26T10:37:57;8.50;99.90
4820;DHT22;2424;49.696;6.630;2024-02-26T10:43:20;8.60;99.90
4820;DHT22;2424;49.696;6.630;2024-02-26T10:48:49;8.70;99.90
4820;DHT22;2424;49.696;6.630;2024-02-26T10:54:15;9.00;99.90
4820;DHT22;2424;49.696;6.630;2024-02-26T10:59:39;9.20;99.90
4820;DHT22;2424;49.696;6.630;2024-02-26T11:05:03;9.30;99.90
4820;DHT22;2424;49.696;6.630;2024-02-26T11:10:27;9.30;99.90
4820;DHT22;2424;49.696;6.630;2024-02-26T11:15:53;9.40;99.90
4820;DHT22;2424;49.696;6.630;2024-02-26T11:21:18;9.60;99.90
4820;DHT22;2424;49.696;6.630;2024-02-26T11:26:51;9.50;99.90
4820;DHT22;2424;49.696;6.630;2024-02-26T11:32:21;9.60;99.90
4820;DHT22;2424;49.696;6.630;2024-02-26T11:37:52;9.50;99.90
4820;DHT22;2424;49.696;6.630;2024-02-26T11:43:14;9.60;99.90
4820;DHT22;2424;49.696;6.630;2024-02-26T11:48:37;9.70;99.90
4820;DHT22;2424;49.696;6.630;2024-02-26T11:54:00;9.60;99.90
4820;DHT22;2424;49.696;6.630;2024-02-26T11:59:38;9.70;99.90
4820;DHT22;2424;49.696;6.630;2024-02-26T12:05:06;9.90;99.90
4820;DHT22;2424;49.696;6.630;2024-02-26T12:10:31;10.00;99.90
4820;DHT22;2424;49.696;6.630;2024-02-26T12:15:57;10.30;99.90
4820;DHT22;2424;49.696;6.630;2024-02-26T12:21:21;10.40;99.90
4820;DHT22;2424;49.696;6.630;2024-02-26T12:26:42;10.50;99.90
4820;DHT22;2424;49.696;6.630;2024-02-26T12:32:05;10.60;99.90
4820;DHT22;2424;49.696;6.630;2024-02-26T12:37:29;10.70;99.90
4820;DHT22;2424;49.696;6.630;2024-02-26T12:42:51;10.60;99.90
4820;DHT22;2424;49.696;6.630;2024-02-26T12:48:14;10.60;99.90
4820;DHT22;2424;49.696;6.630;2024-02-26T12:53:38;10.60;99.90
4820;DHT22;2424;49.696;6.630;2024-02-26T12:59:00;10.60;99.90
4820;DHT22;2424;49.696;6.630;2024-02-26T13:04:24;10.60;99.90
4820;DHT22;2424;49.696;6.630;2024-02-26T13:09:47;10.60;99.90
4820;DHT22;2424;49.696;6.630;2024-02-26T13:15:15;10.60;99.90
4820;DHT22;2424;49.696;6.630;2024-02-26T13:20:37;10.60;99.90
4820;DHT22;2424;49.696;6.630;2024-02-26T13:26:02;10.60;99.90
4820;DHT22;2424;49.696;6.630;2024-02-26T13:31:24;10.70;99.90
4820;DHT22;2424;49.696;6.630;2024-02-26T13:36:46;10.70;99.90
4820;DHT22;2424;49.696;6.630;2024-02-26T13:42:09;10.70;99.90
4820;DHT22;2424;49.696;6.630;2024-02-26T13:47:32;10.80;99.90
4820;DHT22;2424;49.696;6.630;2024-02-26T13:52:54;10.90;99.90
4820;DHT22;2424;49.696;6.630;2024-02-26T13:58:18;11.00;99.90
4820;DHT22;2424;49.696;6.630;2024-02-26T14:03:43;11.00;99.90
4820;DHT22;2424;49.696;6.630;2024-02-26T14:09:05;10.90;99.90
4820;DHT22;2424;49.696;6.630;2024-02-26T14:14:29;10.80;99.90
4820;DHT22;2424;49.696;6.630;2024-02-26T14:19:53;10.70;99.90
4820;DHT22;2424;49.696;6.630;2024-02-26T14:25:15;10.70;99.90
4820;DHT22;2424;49.696;6.630;2024-02-26T14:30:38;10.60;99.90
4820;DHT22;2424;49.696;6.630;2024-02-26T14:36:00;10.50;99.90
4820;DHT22;2424;49.696;6.630;2024-02-26T14:41:22;10.40;99.90
4820;DHT22;2424;49.696;6.630;2024-02-26T14:46:46;10.40;99.90
4820;DHT22;2424;49.696;6.630;2024-02-26T14:52:07;10.40;99.90
4820;DHT22;2424;49.696;6.630;2024-02-26T14:57:29;10.30;99.90
4820;DHT22;2424;49.696;6.630;2024-02-26T15:02:53;10.30;99.90
4820;DHT22;2424;49.696;6.630;2024-02-26T15:08:16;10.30;99.90
4820;DHT22;2424;49.696;6.630;2024-02-26T15:13:38;10.50;99.90
4820;DHT22;2424;49.696;6.630;2024-02-26T15:19:01;10.60;99.90
4820;DHT22;2424;49.696;6.630;2024-02-26T15:24:24;10.40;99.90
4820;DHT22;2424;49.696;6.630;2024-02-26T15:29:46;10.40;99.90
4820;DHT22;2424;49.696;6.630;2024-02-26T15:35:10;10.30;99.90
4820;DHT22;2424;49.696;6.630;2024-02-26T15:40:32;10.10;99.90
4820;DHT22;2424;49.696;6.630;2024-02-26T15:45:54;10.10;99.90
4820;DHT22;2424;49.696;6.630;2024-02-26T15:51:21;10.00;99.90
4820;DHT22;2424;49.696;6.630;2024-02-26T15:56:44;10.00;99.90
4820;DHT22;2424;49.696;6.630;2024-02-26T16:02:06;9.90;99.90
4820;DHT22;2424;49.696;6.630;2024-02-26T16:07:43;9.80;99.90
4820;DHT22;2424;49.696;6.630;2024-02-26T16:13:06;9.80;99.90
4820;DHT22;2424;49.696;6.630;2024-02-26T16:18:30;9.80;99.90
4820;DHT22;2424;49.696;6.630;2024-02-26T16:23:53;9.70;99.90
4820;DHT22;2424;49.696;6.630;2024-02-26T16:29:15;9.70;99.90
4820;DHT22;2424;49.696;6.630;2024-02-26T16:34:37;9.70;99.90
4820;DHT22;2424;49.696;6.630;2024-02-26T16:40:03;9.70;99.90
4820;DHT22;2424;49.696;6.630;2024-02-26T16:45:25;9.50;99.90
4820;DHT22;2424;49.696;6.630;2024-02-26T16:50:48;9.50;99.90
4820;DHT22;2424;49.696;6.630;2024-02-26T16:56:13;9.50;99.90
4820;DHT22;2424;49.696;6.630;2024-02-26T17:01:35;9.40;99.90
4820;DHT22;2424;49.696;6.630;2024-02-26T17:06:56;9.30;99.90
4820;DHT22;2424;49.696;6.630;2024-02-26T17:12:20;9.20;99.90
4820;DHT22;2424;49.696;6.630;2024-02-26T17:17:42;9.20;99.90
4820;DHT22;2424;49.696;6.630;2024-02-26T17:23:04;9.20;99.90
4820;DHT22;2424;49.696;6.630;2024-02-26T17:28:28;9.10;99.90
4820;DHT22;2424;49.696;6.630;2024-02-26T17:33:50;9.00;99.90
4820;DHT22;2424;49.696;6.630;2024-02-26T17:39:12;9.00;99.90
4820;DHT22;2424;49.696;6.630;2024-02-26T17:44:36;9.00;99.90
4820;DHT22;2424;49.696;6.630;2024-02-26T17:49:58;8.90;99.90
4820;DHT22;2424;49.696;6.630;2024-02-26T17:55:20;8.90;99.90
4820;DHT22;2424;49.696;6.630;2024-02-26T18:00:43;8.90;99.90
4820;DHT22;2424;49.696;6.630;2024-02-26T18:06:06;8.80;99.90
4820;DHT22;2424;49.696;6.630;2024-02-26T18:11:28;8.80;99.90
4820;DHT22;2424;49.696;6.630;2024-02-26T18:16:52;8.80;99.90
4820;DHT22;2424;49.696;6.630;2024-02-26T18:22:14;8.70;99.90
4820;DHT22;2424;49.696;6.630;2024-02-26T18:27:36;8.70;99.90
4820;DHT22;2424;49.696;6.630;2024-02-26T18:32:59;8.70;99.90
4820;DHT22;2424;49.696;6.630;2024-02-26T18:38:21;8.60;99.90
4820;DHT22;2424;49.696;6.630;2024-02-26T18:43:44;8.60;99.90
4820;DHT22;2424;49.696;6.630;2024-02-26T18:49:07;8.50;99.90
4820;DHT22;2424;49.696;6.630;2024-02-26T18:54:29;8.50;99.90
4820;DHT22;2424;49.696;6.630;2024-02-26T18:59:51;8.50;99.90
4820;DHT22;2424;49.696;6.630;2024-02-26T19:05:14;8.50;99.90
4820;DHT22;2424;49.696;6.630;2024-02-26T19:10:37;8.40;99.90
4820;DHT22;2424;49.696;6.630;2024-02-26T19:15:59;8.30;99.90
4820;DHT22;2424;49.696;6.630;2024-02-26T19:21:23;8.20;99.90
4820;DHT22;2424;49.696;6.630;2024-02-26T19:26:45;8.20;99.90
4820;DHT22;2424;49.696;6.630;2024-02-26T19:32:07;8.10;99.90
4820;DHT22;2424;49.696;6.630;2024-02-26T19:37:33;8.10;99.90
4820;DHT22;2424;49.696;6.630;2024-02-26T19:42:55;8.10;99.90
4820;DHT22;2424;49.696;6.630;2024-02-26T19:48:17;8.00;99.90
4820;DHT22;2424;49.696;6.630;2024-02-26T19:53:40;8.00;99.90
4820;DHT22;2424;49.696;6.630;2024-02-26T19:59:02;7.90;99.90
4820;DHT22;2424;49.696;6.630;2024-02-26T20:04:24;7.90;99.90
4820;DHT22;2424;49.696;6.630;2024-02-26T20:09:48;7.90;99.90
4820;DHT22;2424;49.696;6.630;2024-02-26T20:15:09;7.90;99.90
4820;DHT22;2424;49.696;6.630;2024-02-26T20:20:31;7.90;99.90
4820;DHT22;2424;49.696;6.630;2024-02-26T20:25:55;7.90;99.90
4820;DHT22;2424;49.696;6.630;2024-02-26T20:31:19;7.90;99.90
4820;DHT22;2424;49.696;6.630;2024-02-26T20:36:41;8.00;99.90
4820;DHT22;2424;49.696;6.630;2024-02-26T20:42:04;7.90;99.90
4820;DHT22;2424;49.696;6.630;2024-02-26T20:47:27;7.80;99.90
4820;DHT22;2424;49.696;6.630;2024-02-26T20:52:50;7.80;99.90
4820;DHT22;2424;49.696;6.630;2024-02-26T20:58:13;7.80;99.90
4820;DHT22;2424;49.696;6.630;2024-02-26T21:03:35;7.70;99.90
4820;DHT22;2424;49.696;6.630;2024-02-26T21:08:57;7.80;99.90
4820;DHT22;2424;49.696;6.630;2024-02-26T21:14:20;7.70;99.90
4820;DHT22;2424;49.696;6.630;2024-02-26T21:19:42;7.70;99.90
4820;DHT22;2424;49.696;6.630;2024-02-26T21:25:05;7.70;99.90
4820;DHT22;2424;49.696;6.630;2024-02-26T21:30:29;7.70;99.90
4820;DHT22;2424;49.696;6.630;2024-02-26T21:35:51;7.60;99.90
4820;DHT22;2424;49.696;6.630;2024-02-26T21:41:14;7.60;99.90
4820;DHT22;2424;49.696;6.630;2024-02-26T21:46:39;7.60;99.90
4820;DHT22;2424;49.696;6.630;2024-02-26T21:52:04;7.60;99.90
4820;DHT22;2424;49.696;6.630;2024-02-26T21:57:26;7.60;99.90
4820;DHT22;2424;49.696;6.630;2024-02-26T22:02:49;7.50;99.90
4820;DHT22;2424;49.696;6.630;2024-02-26T22:08:11;7.50;99.90
4820;DHT22;2424;49.696;6.630;2024-02-26T22:13:33;7.40;99.90
4820;DHT22;2424;49.696;6.630;2024-02-26T22:18:58;7.50;99.90
4820;DHT22;2424;49.696;6.630;2024-02-26T22:24:21;7.40;99.90
4820;DHT22;2424;49.696;6.630;2024-02-26T22:29:42;7.40;99.90
4820;DHT22;2424;49.696;6.630;2024-02-26T22:35:07;7.40;99.90
4820;DHT22;2424;49.696;6.630;2024-02-26T22:40:29;7.30;99.90
4820;DHT22;2424;49.696;6.630;2024-02-26T22:45:50;7.30;99.90
4820;DHT22;2424;49.696;6.630;2024-02-26T22:51:14;7.30;99.90
4820;DHT22;2424;49.696;6.630;2024-02-26T22:56:36;7.20;99.90
4820;DHT22;2424;49.696;6.630;2024-02-26T23:01:58;7.30;99.90
4820;DHT22;2424;49.696;6.630;2024-02-26T23:07:21;7.30;99.90
4820;DHT22;2424;49.696;6.630;2024-02-26T23:12:43;7.20;99.90
4820;DHT22;2424;49.696;6.630;2024-02-26T23:18:06;7.20;99.90
4820;DHT22;2424;49.696;6.630;2024-02-26T23:23:29;7.20;99.90
4820;DHT22;2424;49.696;6.630;2024-02-26T23:28:51;7.20;99.90
4820;DHT22;2424;49.696;6.630;2024-02-26T23:34:13;7.10;99.90
4820;DHT22;2424;49.696;6.630;2024-02-26T23:39:36;7.10;99.90
4820;DHT22;2424;49.696;6.630;2024-02-26T23:44:58;7.10;99.90
4820;DHT22;2424;49.696;6.630;2024-02-26T23:50:20;7.10;99.90
4820;DHT22;2424;49.696;6.630;2024-02-26T23:55:45;7.10;99.90
